sensor_id;sensor_type;location;lat;lon;timestamp;pressure;altitude;pressure_sealevel;temperature;humidity
26697;BME280;14312;52.614;13.496;2023-08-12T00:02:19;101340.19;;;20.68;54.64
26697;BME280;14312;52.614;13.496;2023-08-12T00:05:06;101336.41;;;20.69;54.54
26697;BME280;14312;52.614;13.496;2023-08-12T00:07:52;101342.63;;;20.70;54.79
26697;BME280;14312;52.614;13.496;2023-08-12T00:10:38;101343.16;;;20.72;54.78
26697;BME280;14312;52.614;13.496;2023-08-12T00:13:24;101345.56;;;20.74;54.69
26697;BME280;14312;52.614;13.496;2023-08-12T00:16:10;101354.50;;;20.74;54.68
26697;BME280;14312;52.614;13.496;2023-08-12T00:18:56;101349.91;;;20.75;54.83
26697;BME280;14312;52.614;13.496;2023-08-12T00:21:42;101346.06;;;20.76;54.80
26697;BME280;14312;52.614;13.496;2023-08-12T00:24:27;101348.28;;;20.74;54.96
26697;BME280;14312;52.614;13.496;2023-08-12T00:27:13;101341.25;;;20.73;54.85
26697;BME280;14312;52.614;13.496;2023-08-12T00:29:59;101347.47;;;20.73;54.88
26697;BME280;14312;52.614;13.496;2023-08-12T00:32:45;101342.88;;;20.74;54.93
26697;BME280;14312;52.614;13.496;2023-08-12T00:35:31;101342.88;;;20.74;54.96
26697;BME280;14312;52.614;13.496;2023-08-12T00:38:17;101339.06;;;20.75;54.96
26697;BME280;14312;52.614;13.496;2023-08-12T00:41:03;101335.22;;;20.76;55.31
26697;BME280;14312;52.614;13.496;2023-08-12T00:43:49;101332.25;;;20.77;55.24
26697;BME280;14312;52.614;13.496;2023-08-12T00:46:36;101323.81;;;20.79;55.37
26697;BME280;14312;52.614;13.496;2023-08-12T00:49:24;101325.44;;;20.80;55.28
26697;BME280;14312;52.614;13.496;2023-08-12T00:52:11;101326.25;;;20.80;55.12
26697;BME280;14312;52.614;13.496;2023-08-12T00:54:57;101317.84;;;20.82;55.47
26697;BME280;14312;52.614;13.496;2023-08-12T00:57:43;101319.44;;;20.83;55.36
26697;BME280;14312;52.614;13.496;2023-08-12T01:00:30;101322.66;;;20.85;55.30
26697;BME280;14312;52.614;13.496;2023-08-12T01:03:16;101317.25;;;20.85;55.47
26697;BME280;14312;52.614;13.496;2023-08-12T01:06:03;101306.41;;;20.85;55.40
26697;BME280;14312;52.614;13.496;2023-08-12T01:08:49;101306.41;;;20.85;55.40
26697;BME280;14312;52.614;13.496;2023-08-12T01:14:51;101291.25;;;20.84;56.20
26697;BME280;14312;52.614;13.496;2023-08-12T01:17:43;101291.53;;;20.82;55.39
26697;BME280;14312;52.614;13.496;2023-08-12T01:20:29;101289.13;;;20.81;55.51
26697;BME280;14312;52.614;13.496;2023-08-12T01:23:16;101285.09;;;20.78;55.49
26697;BME280;14312;52.614;13.496;2023-08-12T01:26:02;101282.66;;;20.77;55.34
26697;BME280;14312;52.614;13.496;2023-08-12T01:28:47;101284.88;;;20.75;55.55
26697;BME280;14312;52.614;13.496;2023-08-12T01:31:55;101284.88;;;20.75;56.66
26697;BME280;14312;52.614;13.496;2023-08-12T01:35:03;101283.84;;;20.70;56.65
26697;BME280;14312;52.614;13.496;2023-08-12T01:37:53;101289.53;;;20.69;55.75
26697;BME280;14312;52.614;13.496;2023-08-12T01:40:41;101287.13;;;20.67;55.92
26697;BME280;14312;52.614;13.496;2023-08-12T01:43:29;101287.44;;;20.66;55.94
26697;BME280;14312;52.614;13.496;2023-08-12T01:46:15;101282.31;;;20.64;55.83
26697;BME280;14312;52.614;13.496;2023-08-12T01:49:01;101280.69;;;20.63;56.22
26697;BME280;14312;52.614;13.496;2023-08-12T01:51:47;101274.75;;;20.61;56.22
26697;BME280;14312;52.614;13.496;2023-08-12T01:54:33;101282.06;;;20.61;55.92
26697;BME280;14312;52.614;13.496;2023-08-12T01:57:20;101273.72;;;20.57;56.03
26697;BME280;14312;52.614;13.496;2023-08-12T02:00:06;101274.81;;;20.56;56.20
26697;BME280;14312;52.614;13.496;2023-08-12T02:02:52;101264.56;;;20.53;56.14
26697;BME280;14312;52.614;13.496;2023-08-12T02:05:38;101259.75;;;20.50;56.23
26697;BME280;14312;52.614;13.496;2023-08-12T02:08:24;101260.81;;;20.49;56.21
26697;BME280;14312;52.614;13.496;2023-08-12T02:11:10;101259.50;;;20.47;56.45
26697;BME280;14312;52.614;13.496;2023-08-12T02:13:56;101255.97;;;20.46;56.44
26697;BME280;14312;52.614;13.496;2023-08-12T02:16:42;101250.06;;;20.44;56.59
26697;BME280;14312;52.614;13.496;2023-08-12T02:19:27;101237.63;;;20.43;56.56
26697;BME280;14312;52.614;13.496;2023-08-12T02:22:13;101238.72;;;20.42;56.54
26697;BME280;14312;52.614;13.496;2023-08-12T02:24:59;101243.03;;;20.43;56.68
26697;BME280;14312;52.614;13.496;2023-08-12T02:27:45;101239.53;;;20.43;56.62
26697;BME280;14312;52.614;13.496;2023-08-12T02:30:31;101237.09;;;20.41;56.69
26697;BME280;14312;52.614;13.496;2023-08-12T02:33:17;101241.44;;;20.42;56.62
26697;BME280;14312;52.614;13.496;2023-08-12T02:36:03;101235.19;;;20.42;56.69
26697;BME280;14312;52.614;13.496;2023-08-12T02:38:49;101224.09;;;20.43;56.90
26697;BME280;14312;52.614;13.496;2023-08-12T02:41:35;101231.13;;;20.44;56.70
26697;BME280;14312;52.614;13.496;2023-08-12T02:44:21;101221.91;;;20.45;57.10
26697;BME280;14312;52.614;13.496;2023-08-12T02:47:07;101227.00;;;20.47;56.96
26697;BME280;14312;52.614;13.496;2023-08-12T02:49:52;101230.53;;;20.47;57.20
26697;BME280;14312;52.614;13.496;2023-08-12T02:52:38;101226.72;;;20.48;57.24
26697;BME280;14312;52.614;13.496;2023-08-12T02:55:24;101219.13;;;20.50;57.01
26697;BME280;14312;52.614;13.496;2023-08-12T02:58:10;101209.91;;;20.51;57.28
26697;BME280;14312;52.614;13.496;2023-08-12T03:00:56;101216.94;;;20.52;57.17
26697;BME280;14312;52.614;13.496;2023-08-12T03:03:42;101213.09;;;20.53;57.12
26697;BME280;14312;52.614;13.496;2023-08-12T03:06:28;101209.31;;;20.54;57.28
26697;BME280;14312;52.614;13.496;2023-08-12T03:09:14;101209.00;;;20.56;57.09
26697;BME280;14312;52.614;13.496;2023-08-12T03:11:59;101202.78;;;20.55;57.03
26697;BME280;14312;52.614;13.496;2023-08-12T03:14:47;101205.50;;;20.55;56.96
26697;BME280;14312;52.614;13.496;2023-08-12T03:17:33;101209.31;;;20.54;57.08
26697;BME280;14312;52.614;13.496;2023-08-12T03:20:19;101207.69;;;20.53;57.05
26697;BME280;14312;52.614;13.496;2023-08-12T03:23:05;101206.09;;;20.52;57.24
26697;BME280;14312;52.614;13.496;2023-08-12T03:25:51;101197.47;;;20.50;57.04
26697;BME280;14312;52.614;13.496;2023-08-12T03:28:36;101197.47;;;20.50;57.26
26697;BME280;14312;52.614;13.496;2023-08-12T03:31:22;101198.56;;;20.49;57.30
26697;BME280;14312;52.614;13.496;2023-08-12T03:34:08;101193.41;;;20.48;57.54
26697;BME280;14312;52.614;13.496;2023-08-12T03:36:54;101192.63;;;20.47;57.43
26697;BME280;14312;52.614;13.496;2023-08-12T03:39:40;101195.91;;;20.44;57.33
26697;BME280;14312;52.614;13.496;2023-08-12T03:42:26;101188.91;;;20.43;57.39
26697;BME280;14312;52.614;13.496;2023-08-12T03:45:12;101189.19;;;20.42;57.37
26697;BME280;14312;52.614;13.496;2023-08-12T03:47:57;101175.94;;;20.40;57.54
26697;BME280;14312;52.614;13.496;2023-08-12T03:50:43;101176.53;;;20.37;57.32
26697;BME280;14312;52.614;13.496;2023-08-12T03:53:31;101178.72;;;20.35;57.34
26697;BME280;14312;52.614;13.496;2023-08-12T03:56:17;101173.84;;;20.32;57.57
26697;BME280;14312;52.614;13.496;2023-08-12T03:59:03;101184.66;;;20.32;57.49
26697;BME280;14312;52.614;13.496;2023-08-12T04:01:49;101176.84;;;20.30;57.48
26697;BME280;14312;52.614;13.496;2023-08-12T04:04:34;101176.63;;;20.27;57.63
26697;BME280;14312;52.614;13.496;2023-08-12T04:07:20;101177.44;;;20.27;57.60
26697;BME280;14312;52.614;13.496;2023-08-12T04:10:07;101168.78;;;20.25;57.65
26697;BME280;14312;52.614;13.496;2023-08-12T04:12:53;101171.22;;;20.27;57.61
26697;BME280;14312;52.614;13.496;2023-08-12T04:15:39;101169.59;;;20.26;57.74
26697;BME280;14312;52.614;13.496;2023-08-12T04:18:25;101162.81;;;20.28;57.72
26697;BME280;14312;52.614;13.496;2023-08-12T04:21:11;101162.81;;;20.28;57.96
26697;BME280;14312;52.614;13.496;2023-08-12T04:23:56;101160.91;;;20.29;57.81
26697;BME280;14312;52.614;13.496;2023-08-12T04:26:42;101156.59;;;20.28;57.87
26697;BME280;14312;52.614;13.496;2023-08-12T04:29:28;101162.50;;;20.30;57.94
26697;BME280;14312;52.614;13.496;2023-08-12T04:32:14;101162.22;;;20.31;57.89
26697;BME280;14312;52.614;13.496;2023-08-12T04:35:00;101152.97;;;20.32;58.04
26697;BME280;14312;52.614;13.496;2023-08-12T04:37:46;101160.03;;;20.33;58.33
26697;BME280;14312;52.614;13.496;2023-08-12T04:40:32;101145.66;;;20.38;58.23
26697;BME280;14312;52.614;13.496;2023-08-12T04:43:18;101149.94;;;20.39;58.34
26697;BME280;14312;52.614;13.496;2023-08-12T04:46:04;101150.91;;;20.48;58.25
26697;BME280;14312;52.614;13.496;2023-08-12T04:48:50;101149.72;;;20.54;58.34
26697;BME280;14312;52.614;13.496;2023-08-12T04:51:35;101152.88;;;20.61;58.42
26697;BME280;14312;52.614;13.496;2023-08-12T04:54:21;101153.00;;;20.70;58.41
26697;BME280;14312;52.614;13.496;2023-08-12T04:57:07;101148.84;;;20.78;58.47
26697;BME280;14312;52.614;13.496;2023-08-12T04:59:54;101145.97;;;20.88;58.37
26697;BME280;14312;52.614;13.496;2023-08-12T05:02:40;101147.69;;;20.97;58.50
26697;BME280;14312;52.614;13.496;2023-08-12T05:05:26;101142.91;;;21.08;58.43
26697;BME280;14312;52.614;13.496;2023-08-12T05:08:12;101135.75;;;21.17;58.24
26697;BME280;14312;52.614;13.496;2023-08-12T05:10:58;101148.00;;;21.28;57.99
26697;BME280;14312;52.614;13.496;2023-08-12T05:13:44;101144.00;;;21.39;58.21
26697;BME280;14312;52.614;13.496;2023-08-12T05:16:30;101142.22;;;21.48;57.91
26697;BME280;14312;52.614;13.496;2023-08-12T05:19:16;101139.78;;;21.61;57.79
26697;BME280;14312;52.614;13.496;2023-08-12T05:22:02;101145.84;;;21.71;57.69
26697;BME280;14312;52.614;13.496;2023-08-12T05:24:48;101144.22;;;21.84;57.70
26697;BME280;14312;52.614;13.496;2023-08-12T05:27:33;101142.41;;;21.93;57.58
26697;BME280;14312;52.614;13.496;2023-08-12T05:30:19;101133.97;;;22.08;57.56
26697;BME280;14312;52.614;13.496;2023-08-12T05:33:05;101135.84;;;22.21;57.64
26697;BME280;14312;52.614;13.496;2023-08-12T05:35:51;101132.81;;;22.37;57.67
26697;BME280;14312;52.614;13.496;2023-08-12T05:38:37;101139.47;;;22.53;57.74
26697;BME280;14312;52.614;13.496;2023-08-12T05:41:23;101126.03;;;22.70;57.42
26697;BME280;14312;52.614;13.496;2023-08-12T05:44:09;101119.63;;;22.88;57.59
26697;BME280;14312;52.614;13.496;2023-08-12T05:46:55;101111.88;;;23.04;56.99
26697;BME280;14312;52.614;13.496;2023-08-12T05:49:40;101125.38;;;23.18;56.65
26697;BME280;14312;52.614;13.496;2023-08-12T05:52:28;101127.22;;;23.31;56.70
26697;BME280;14312;52.614;13.496;2023-08-12T05:55:14;101125.84;;;23.42;56.34
26697;BME280;14312;52.614;13.496;2023-08-12T05:57:59;101124.28;;;23.50;56.10
26697;BME280;14312;52.614;13.496;2023-08-12T06:00:46;101115.38;;;23.58;55.79
26697;BME280;14312;52.614;13.496;2023-08-12T06:03:32;101116.31;;;23.62;55.92
26697;BME280;14312;52.614;13.496;2023-08-12T06:06:18;101111.41;;;23.72;55.71
26697;BME280;14312;52.614;13.496;2023-08-12T06:09:03;101109.03;;;23.79;55.84
26697;BME280;14312;52.614;13.496;2023-08-12T06:11:49;101114.81;;;23.87;56.10
26697;BME280;14312;52.614;13.496;2023-08-12T06:14:37;101122.66;;;23.97;55.76
26697;BME280;14312;52.614;13.496;2023-08-12T06:17:24;101118.66;;;24.03;55.67
26697;BME280;14312;52.614;13.496;2023-08-12T06:20:10;101128.94;;;24.14;55.50
26697;BME280;14312;52.614;13.496;2023-08-12T06:22:56;101132.19;;;24.25;55.86
26697;BME280;14312;52.614;13.496;2023-08-12T06:25:42;101122.59;;;24.36;55.85
26697;BME280;14312;52.614;13.496;2023-08-12T06:28:28;101118.72;;;24.46;55.52
26697;BME280;14312;52.614;13.496;2023-08-12T06:31:14;101120.81;;;24.57;55.36
26697;BME280;14312;52.614;13.496;2023-08-12T06:34:00;101120.16;;;24.69;55.11
26697;BME280;14312;52.614;13.496;2023-08-12T06:36:46;101114.69;;;24.78;55.25
26697;BME280;14312;52.614;13.496;2023-08-12T06:39:32;101118.66;;;24.89;54.77
26697;BME280;14312;52.614;13.496;2023-08-12T06:42:18;101114.03;;;24.98;54.60
26697;BME280;14312;52.614;13.496;2023-08-12T06:45:04;101121.53;;;25.10;54.11
26697;BME280;14312;52.614;13.496;2023-08-12T06:47:50;101113.81;;;25.20;53.24
26697;BME280;14312;52.614;13.496;2023-08-12T06:50:36;101112.50;;;25.26;53.18
26697;BME280;14312;52.614;13.496;2023-08-12T06:53:22;101098.34;;;25.33;53.52
26697;BME280;14312;52.614;13.496;2023-08-12T06:56:08;101090.13;;;25.42;53.72
26697;BME280;14312;52.614;13.496;2023-08-12T06:58:54;101095.69;;;25.54;53.61
26697;BME280;14312;52.614;13.496;2023-08-12T07:01:40;101091.47;;;25.65;53.42
26697;BME280;14312;52.614;13.496;2023-08-12T07:04:26;101086.13;;;25.77;53.06
26697;BME280;14312;52.614;13.496;2023-08-12T07:07:12;101089.56;;;25.86;53.28
26697;BME280;14312;52.614;13.496;2023-08-12T07:09:57;101091.28;;;25.99;53.07
26697;BME280;14312;52.614;13.496;2023-08-12T07:12:43;101096.78;;;26.11;53.00
26697;BME280;14312;52.614;13.496;2023-08-12T07:15:29;101095.75;;;26.25;52.46
26697;BME280;14312;52.614;13.496;2023-08-12T07:18:15;101093.88;;;26.37;51.23
26697;BME280;14312;52.614;13.496;2023-08-12T07:21:01;101087.84;;;26.44;51.09
26697;BME280;14312;52.614;13.496;2023-08-12T07:23:45;101081.06;;;26.50;51.54
26697;BME280;14312;52.614;13.496;2023-08-12T07:26:31;101082.91;;;26.58;51.35
26697;BME280;14312;52.614;13.496;2023-08-12T07:29:18;101093.28;;;26.65;50.20
26697;BME280;14312;52.614;13.496;2023-08-12T07:32:04;101087.31;;;26.71;50.08
26697;BME280;14312;52.614;13.496;2023-08-12T07:34:50;101094.34;;;26.72;50.26
26697;BME280;14312;52.614;13.496;2023-08-12T07:37:36;101096.41;;;26.75;50.22
26697;BME280;14312;52.614;13.496;2023-08-12T07:40:23;101083.66;;;26.79;50.36
26697;BME280;14312;52.614;13.496;2023-08-12T07:43:09;101080.72;;;26.84;50.98
26697;BME280;14312;52.614;13.496;2023-08-12T07:45:55;101075.63;;;26.95;50.79
26697;BME280;14312;52.614;13.496;2023-08-12T07:48:41;101070.97;;;27.08;50.54
26697;BME280;14312;52.614;13.496;2023-08-12T07:51:27;101078.19;;;27.24;49.19
26697;BME280;14312;52.614;13.496;2023-08-12T07:54:13;101076.94;;;27.34;49.47
26697;BME280;14312;52.614;13.496;2023-08-12T07:56:59;101082.28;;;27.43;49.72
26697;BME280;14312;52.614;13.496;2023-08-12T07:59:45;101082.16;;;27.51;49.71
26697;BME280;14312;52.614;13.496;2023-08-12T08:02:31;101066.91;;;27.62;48.70
26697;BME280;14312;52.614;13.496;2023-08-12T08:05:17;101068.28;;;27.69;48.89
26697;BME280;14312;52.614;13.496;2023-08-12T08:08:03;101060.94;;;27.73;49.14
26697;BME280;14312;52.614;13.496;2023-08-12T08:10:49;101076.00;;;27.79;48.85
26697;BME280;14312;52.614;13.496;2023-08-12T08:13:35;101062.09;;;27.84;48.67
26697;BME280;14312;52.614;13.496;2023-08-12T08:16:21;101066.84;;;27.87;48.70
26697;BME280;14312;52.614;13.496;2023-08-12T08:19:07;101057.50;;;27.88;48.92
26697;BME280;14312;52.614;13.496;2023-08-12T08:21:56;101063.44;;;27.90;48.25
26697;BME280;14312;52.614;13.496;2023-08-12T08:24:42;101057.50;;;27.88;48.36
26697;BME280;14312;52.614;13.496;2023-08-12T08:27:28;101057.41;;;27.84;48.50
26697;BME280;14312;52.614;13.496;2023-08-12T08:30:14;101059.69;;;27.82;48.88
26697;BME280;14312;52.614;13.496;2023-08-12T08:33:00;101061.16;;;27.80;48.56
26697;BME280;14312;52.614;13.496;2023-08-12T08:35:46;101061.88;;;27.77;49.02
26697;BME280;14312;52.614;13.496;2023-08-12T08:38:32;101061.41;;;27.75;49.03
26697;BME280;14312;52.614;13.496;2023-08-12T08:41:18;101065.63;;;27.72;49.13
26697;BME280;14312;52.614;13.496;2023-08-12T08:44:09;101061.19;;;27.67;49.06
26697;BME280;14312;52.614;13.496;2023-08-12T08:46:55;101066.44;;;27.60;49.19
26697;BME280;14312;52.614;13.496;2023-08-12T08:49:41;101070.56;;;27.54;49.08
26697;BME280;14312;52.614;13.496;2023-08-12T08:52:28;101072.72;;;27.49;49.01
26697;BME280;14312;52.614;13.496;2023-08-12T08:55:14;101070.09;;;27.40;48.49
26697;BME280;14312;52.614;13.496;2023-08-12T08:58:00;101079.22;;;27.32;48.62
26697;BME280;14312;52.614;13.496;2023-08-12T09:00:47;101076.56;;;27.23;49.12
26697;BME280;14312;52.614;13.496;2023-08-12T09:03:38;101076.47;;;27.20;49.56
26697;BME280;14312;52.614;13.496;2023-08-12T09:06:25;101073.94;;;27.15;49.77
26697;BME280;14312;52.614;13.496;2023-08-12T09:09:13;101064.59;;;27.16;49.75
26697;BME280;14312;52.614;13.496;2023-08-12T09:12:03;101053.66;;;27.16;49.98
26697;BME280;14312;52.614;13.496;2023-08-12T09:14:49;101044.31;;;27.17;50.48
26697;BME280;14312;52.614;13.496;2023-08-12T09:17:35;101052.28;;;27.22;50.70
26697;BME280;14312;52.614;13.496;2023-08-12T09:20:21;101049.34;;;27.27;50.55
26697;BME280;14312;52.614;13.496;2023-08-12T09:23:07;101049.56;;;27.34;50.83
26697;BME280;14312;52.614;13.496;2023-08-12T09:25:55;101050.59;;;27.42;50.45
26697;BME280;14312;52.614;13.496;2023-08-12T09:28:42;101037.47;;;27.47;50.47
26697;BME280;14312;52.614;13.496;2023-08-12T09:31:30;101038.59;;;27.58;50.62
26697;BME280;14312;52.614;13.496;2023-08-12T09:34:17;101040.88;;;27.69;50.70
26697;BME280;14312;52.614;13.496;2023-08-12T09:37:03;101054.09;;;27.79;50.49
26697;BME280;14312;52.614;13.496;2023-08-12T09:39:50;101044.25;;;27.90;50.29
26697;BME280;14312;52.614;13.496;2023-08-12T09:42:44;101056.09;;;28.06;50.24
26697;BME280;14312;52.614;13.496;2023-08-12T09:45:31;101056.53;;;28.20;49.42
26697;BME280;14312;52.614;13.496;2023-08-12T09:48:18;101050.09;;;28.28;48.75
26697;BME280;14312;52.614;13.496;2023-08-12T09:51:04;101043.31;;;28.38;48.48
26697;BME280;14312;52.614;13.496;2023-08-12T09:53:52;101039.63;;;28.46;48.38
26697;BME280;14312;52.614;13.496;2023-08-12T09:56:39;101034.94;;;28.47;47.97
26697;BME280;14312;52.614;13.496;2023-08-12T09:59:33;101027.84;;;28.46;48.08
26697;BME280;14312;52.614;13.496;2023-08-12T10:02:22;101026.50;;;28.39;48.33
26697;BME280;14312;52.614;13.496;2023-08-12T10:05:11;101022.38;;;28.46;47.89
26697;BME280;14312;52.614;13.496;2023-08-12T10:07:58;101034.13;;;28.46;48.11
26697;BME280;14312;52.614;13.496;2023-08-12T10:10:44;101025.56;;;28.48;48.20
26697;BME280;14312;52.614;13.496;2023-08-12T10:13:30;101027.94;;;28.49;48.26
26697;BME280;14312;52.614;13.496;2023-08-12T10:16:17;101026.44;;;28.52;48.27
26697;BME280;14312;52.614;13.496;2023-08-12T10:19:05;101028.91;;;28.57;48.75
26697;BME280;14312;52.614;13.496;2023-08-12T10:21:55;101026.72;;;28.62;48.30
26697;BME280;14312;52.614;13.496;2023-08-12T10:24:42;101034.59;;;28.64;47.62
26697;BME280;14312;52.614;13.496;2023-08-12T10:27:29;101032.22;;;28.62;47.34
26697;BME280;14312;52.614;13.496;2023-08-12T10:30:15;101016.81;;;28.58;47.76
26697;BME280;14312;52.614;13.496;2023-08-12T10:33:02;101013.19;;;28.54;48.02
26697;BME280;14312;52.614;13.496;2023-08-12T10:35:49;101006.91;;;28.53;47.65
26697;BME280;14312;52.614;13.496;2023-08-12T10:38:35;101001.50;;;28.57;47.65
26697;BME280;14312;52.614;13.496;2023-08-12T10:41:23;100998.41;;;28.58;48.19
26697;BME280;14312;52.614;13.496;2023-08-12T10:44:09;100989.81;;;28.60;48.16
26697;BME280;14312;52.614;13.496;2023-08-12T10:46:57;100989.31;;;28.70;47.93
26697;BME280;14312;52.614;13.496;2023-08-12T10:49:50;100990.97;;;28.74;47.99
26697;BME280;14312;52.614;13.496;2023-08-12T10:52:38;100981.72;;;28.79;47.49
26697;BME280;14312;52.614;13.496;2023-08-12T10:55:26;100984.91;;;28.81;48.13
26697;BME280;14312;52.614;13.496;2023-08-12T10:58:24;100978.00;;;28.87;48.60
26697;BME280;14312;52.614;13.496;2023-08-12T11:01:15;100978.97;;;28.95;48.52
26697;BME280;14312;52.614;13.496;2023-08-12T11:04:18;100974.63;;;29.09;48.30
26697;BME280;14312;52.614;13.496;2023-08-12T11:07:28;100971.34;;;29.19;48.44
26697;BME280;14312;52.614;13.496;2023-08-12T11:10:17;100971.22;;;29.32;48.59
26697;BME280;14312;52.614;13.496;2023-08-12T11:13:03;100986.38;;;29.41;47.72
26697;BME280;14312;52.614;13.496;2023-08-12T11:15:49;100979.84;;;29.49;47.61
26697;BME280;14312;52.614;13.496;2023-08-12T11:18:36;100975.59;;;29.52;47.32
26697;BME280;14312;52.614;13.496;2023-08-12T11:21:22;100974.81;;;29.51;47.80
26697;BME280;14312;52.614;13.496;2023-08-12T11:24:09;100974.09;;;29.54;47.36
26697;BME280;14312;52.614;13.496;2023-08-12T11:26:54;100979.94;;;29.53;47.87
26697;BME280;14312;52.614;13.496;2023-08-12T11:29:40;100985.00;;;29.51;47.99
26697;BME280;14312;52.614;13.496;2023-08-12T11:32:26;100979.50;;;29.51;48.29
26697;BME280;14312;52.614;13.496;2023-08-12T11:35:14;100970.56;;;29.54;47.98
26697;BME280;14312;52.614;13.496;2023-08-12T11:38:00;100975.25;;;29.53;48.18
26697;BME280;14312;52.614;13.496;2023-08-12T11:40:46;100961.16;;;29.55;48.29
26697;BME280;14312;52.614;13.496;2023-08-12T11:43:32;100963.13;;;29.54;48.22
26697;BME280;14312;52.614;13.496;2023-08-12T11:46:18;100964.31;;;29.57;48.78
26697;BME280;14312;52.614;13.496;2023-08-12T11:49:04;100963.31;;;29.65;48.59
26697;BME280;14312;52.614;13.496;2023-08-12T11:51:51;100970.41;;;29.66;48.73
26697;BME280;14312;52.614;13.496;2023-08-12T11:54:38;100972.00;;;29.67;48.70
26697;BME280;14312;52.614;13.496;2023-08-12T11:57:26;100953.47;;;29.64;49.06
26697;BME280;14312;52.614;13.496;2023-08-12T12:00:13;100964.06;;;29.62;48.76
26697;BME280;14312;52.614;13.496;2023-08-12T12:02:59;100965.28;;;29.65;48.68
26697;BME280;14312;52.614;13.496;2023-08-12T12:05:46;100972.72;;;29.64;48.44
26697;BME280;14312;52.614;13.496;2023-08-12T12:08:32;100975.06;;;29.62;48.32
26697;BME280;14312;52.614;13.496;2023-08-12T12:11:18;100960.88;;;29.60;48.44
26697;BME280;14312;52.614;13.496;2023-08-12T12:14:05;100974.44;;;29.53;47.94
26697;BME280;14312;52.614;13.496;2023-08-12T12:16:51;100969.66;;;29.50;47.39
26697;BME280;14312;52.614;13.496;2023-08-12T12:19:40;100966.50;;;29.48;47.82
26697;BME280;14312;52.614;13.496;2023-08-12T12:22:30;100981.81;;;29.49;47.92
26697;BME280;14312;52.614;13.496;2023-08-12T12:25:17;100977.19;;;29.53;47.74
26697;BME280;14312;52.614;13.496;2023-08-12T12:28:06;100971.69;;;29.53;48.19
26697;BME280;14312;52.614;13.496;2023-08-12T12:30:52;100970.97;;;29.56;47.67
26697;BME280;14312;52.614;13.496;2023-08-12T12:33:37;100970.09;;;29.52;48.36
26697;BME280;14312;52.614;13.496;2023-08-12T12:36:23;100968.50;;;29.51;48.28
26697;BME280;14312;52.614;13.496;2023-08-12T12:39:09;100968.06;;;29.49;48.28
26697;BME280;14312;52.614;13.496;2023-08-12T12:41:55;100962.88;;;29.44;48.22
26697;BME280;14312;52.614;13.496;2023-08-12T12:44:40;100961.28;;;29.43;48.04
26697;BME280;14312;52.614;13.496;2023-08-12T12:47:26;100932.75;;;29.32;47.92
26697;BME280;14312;52.614;13.496;2023-08-12T12:50:12;100919.16;;;29.19;48.09
26697;BME280;14312;52.614;13.496;2023-08-12T12:52:58;100904.84;;;29.10;48.16
26697;BME280;14312;52.614;13.496;2023-08-12T12:55:44;100903.09;;;29.02;48.73
26697;BME280;14312;52.614;13.496;2023-08-12T12:58:31;100885.75;;;28.98;48.77
26697;BME280;14312;52.614;13.496;2023-08-12T13:01:17;100881.41;;;28.97;49.13
26697;BME280;14312;52.614;13.496;2023-08-12T13:04:03;100878.66;;;28.97;49.02
26697;BME280;14312;52.614;13.496;2023-08-12T13:06:49;100874.03;;;29.01;49.17
26697;BME280;14312;52.614;13.496;2023-08-12T13:09:35;100860.75;;;29.03;49.37
26697;BME280;14312;52.614;13.496;2023-08-12T13:12:21;100860.91;;;29.10;49.77
26697;BME280;14312;52.614;13.496;2023-08-12T13:15:07;100858.78;;;29.19;49.39
26697;BME280;14312;52.614;13.496;2023-08-12T13:17:53;100859.88;;;29.34;49.62
26697;BME280;14312;52.614;13.496;2023-08-12T13:20:39;100867.63;;;29.48;49.19
26697;BME280;14312;52.614;13.496;2023-08-12T13:23:26;100871.44;;;29.63;49.11
26697;BME280;14312;52.614;13.496;2023-08-12T13:26:12;100866.22;;;29.77;49.39
26697;BME280;14312;52.614;13.496;2023-08-12T13:28:58;100870.47;;;29.93;48.57
26697;BME280;14312;52.614;13.496;2023-08-12T13:31:43;100862.13;;;30.09;48.25
26697;BME280;14312;52.614;13.496;2023-08-12T13:34:29;100856.78;;;30.20;48.17
26697;BME280;14312;52.614;13.496;2023-08-12T13:37:15;100857.34;;;30.29;47.70
26697;BME280;14312;52.614;13.496;2023-08-12T13:40:01;100857.91;;;30.38;47.22
26697;BME280;14312;52.614;13.496;2023-08-12T13:42:47;100855.59;;;30.40;46.67
26697;BME280;14312;52.614;13.496;2023-08-12T13:45:33;100847.72;;;30.42;46.84
26697;BME280;14312;52.614;13.496;2023-08-12T13:48:19;100836.84;;;30.49;47.61
26697;BME280;14312;52.614;13.496;2023-08-12T13:51:05;100836.25;;;30.59;47.24
26697;BME280;14312;52.614;13.496;2023-08-12T13:53:52;100834.13;;;30.76;47.52
26697;BME280;14312;52.614;13.496;2023-08-12T13:56:37;100835.88;;;30.87;47.21
26697;BME280;14312;52.614;13.496;2023-08-12T13:59:23;100828.94;;;30.97;46.13
26697;BME280;14312;52.614;13.496;2023-08-12T14:02:13;100822.41;;;31.08;45.78
26697;BME280;14312;52.614;13.496;2023-08-12T14:04:59;100829.16;;;31.15;46.33
26697;BME280;14312;52.614;13.496;2023-08-12T14:07:44;100819.03;;;31.22;45.16
26697;BME280;14312;52.614;13.496;2023-08-12T14:10:30;100822.25;;;31.28;45.54
26697;BME280;14312;52.614;13.496;2023-08-12T14:13:16;100816.78;;;31.31;44.75
26697;BME280;14312;52.614;13.496;2023-08-12T14:16:02;100815.19;;;31.30;44.39
26697;BME280;14312;52.614;13.496;2023-08-12T14:18:48;100823.81;;;31.25;44.23
26697;BME280;14312;52.614;13.496;2023-08-12T14:21:34;100826.88;;;31.20;44.18
26697;BME280;14312;52.614;13.496;2023-08-12T14:24:19;100829.13;;;31.11;44.06